sensor_id;sensor_type;location;lat;lon;timestamp;pressure;altitude;pressure_sealevel;temperature;humidity
32083;BME280;18597;48.328;7.932;2023-02-19T00:01:40;100243.63;;;10.42;100.00
32083;BME280;18597;48.328;7.932;2023-02-19T00:04:15;100233.00;;;10.53;100.00
32083;BME280;18597;48.328;7.932;2023-02-19T00:06:42;100236.94;;;10.72;100.00
32083;BME280;18597;48.328;7.932;2023-02-19T00:09:11;100227.34;;;10.80;100.00
32083;BME280;18597;48.328;7.932;2023-02-19T00:11:38;100227.97;;;10.84;100.00
32083;BME280;18597;48.328;7.932;2023-02-19T00:14:05;100228.50;;;10.89;100.00
32083;BME280;18597;48.328;7.932;2023-02-19T00:16:34;100232.50;;;10.95;100.00
32083;BME280;18597;48.328;7.932;2023-02-19T00:19:04;100236.59;;;10.88;100.00
32083;BME280;18597;48.328;7.932;2023-02-19T00:21:30;100238.34;;;10.89;100.00
32083;BME280;18597;48.328;7.932;2023-02-19T00:24:00;100237.44;;;10.88;100.00
32083;BME280;18597;48.328;7.932;2023-02-19T00:26:27;100241.34;;;10.95;100.00
32083;BME280;18597;48.328;7.932;2023-02-19T00:28:55;100239.69;;;11.05;100.00
32083;BME280;18597;48.328;7.932;2023-02-19T00:31:27;100225.72;;;11.13;100.00
32083;BME280;18597;48.328;7.932;2023-02-19T00:33:57;100220.84;;;11.07;100.00
32083;BME280;18597;48.328;7.932;2023-02-19T00:36:25;100227.78;;;11.21;100.00
32083;BME280;18597;48.328;7.932;2023-02-19T00:38:51;100225.25;;;11.30;100.00
32083;BME280;18597;48.328;7.932;2023-02-19T00:41:20;100228.88;;;11.18;100.00
32083;BME280;18597;48.328;7.932;2023-02-19T00:43:56;100233.63;;;11.15;100.00
32083;BME280;18597;48.328;7.932;2023-02-19T00:46:26;100236.16;;;11.16;100.00
32083;BME280;18597;48.328;7.932;2023-02-19T00:48:54;100244.56;;;11.11;100.00
32083;BME280;18597;48.328;7.932;2023-02-19T00:51:23;100238.38;;;11.11;100.00
32083;BME280;18597;48.328;7.932;2023-02-19T00:53:49;100236.53;;;11.23;100.00
32083;BME280;18597;48.328;7.932;2023-02-19T00:56:16;100240.56;;;11.28;100.00
32083;BME280;18597;48.328;7.932;2023-02-19T00:58:42;100232.91;;;11.24;100.00
32083;BME280;18597;48.328;7.932;2023-02-19T01:01:09;100239.84;;;11.26;100.00
32083;BME280;18597;48.328;7.932;2023-02-19T01:03:36;100241.78;;;11.24;100.00
32083;BME280;18597;48.328;7.932;2023-02-19T01:06:04;100241.03;;;11.33;100.00
32083;BME280;18597;48.328;7.932;2023-02-19T01:08:31;100228.88;;;11.29;100.00
32083;BME280;18597;48.328;7.932;2023-02-19T01:10:58;100225.72;;;11.24;100.00
32083;BME280;18597;48.328;7.932;2023-02-19T01:13:24;100216.25;;;11.43;100.00
32083;BME280;18597;48.328;7.932;2023-02-19T01:15:51;100208.84;;;11.35;100.00
32083;BME280;18597;48.328;7.932;2023-02-19T01:18:17;100198.22;;;11.33;100.00
32083;BME280;18597;48.328;7.932;2023-02-19T01:20:44;100207.84;;;11.47;100.00
32083;BME280;18597;48.328;7.932;2023-02-19T01:23:11;100214.66;;;11.29;100.00
32083;BME280;18597;48.328;7.932;2023-02-19T01:25:39;100218.44;;;11.26;100.00
32083;BME280;18597;48.328;7.932;2023-02-19T01:28:07;100223.78;;;11.26;100.00
32083;BME280;18597;48.328;7.932;2023-02-19T01:30:35;100224.03;;;11.23;100.00
32083;BME280;18597;48.328;7.932;2023-02-19T01:33:04;100229.25;;;11.25;100.00
32083;BME280;18597;48.328;7.932;2023-02-19T01:35:30;100224.28;;;11.20;100.00
32083;BME280;18597;48.328;7.932;2023-02-19T01:37:56;100226.09;;;11.20;100.00
32083;BME280;18597;48.328;7.932;2023-02-19T01:40:22;100214.78;;;11.16;100.00
32083;BME280;18597;48.328;7.932;2023-02-19T01:42:48;100221.44;;;11.10;100.00
32083;BME280;18597;48.328;7.932;2023-02-19T01:45:35;100214.41;;;11.09;100.00
32083;BME280;18597;48.328;7.932;2023-02-19T01:48:11;100215.75;;;11.15;100.00
32083;BME280;18597;48.328;7.932;2023-02-19T01:50:47;100218.28;;;11.17;100.00
32083;BME280;18597;48.328;7.932;2023-02-19T01:53:17;100238.25;;;11.13;100.00
32083;BME280;18597;48.328;7.932;2023-02-19T01:55:47;100234.81;;;11.10;100.00
32083;BME280;18597;48.328;7.932;2023-02-19T01:58:14;100231.28;;;11.10;100.00
32083;BME280;18597;48.328;7.932;2023-02-19T02:00:41;100229.59;;;11.09;100.00
32083;BME280;18597;48.328;7.932;2023-02-19T02:03:07;100215.75;;;11.15;100.00
32083;BME280;18597;48.328;7.932;2023-02-19T02:05:57;100224.50;;;11.17;100.00
32083;BME280;18597;48.328;7.932;2023-02-19T02:08:24;100209.44;;;11.05;100.00
32083;BME280;18597;48.328;7.932;2023-02-19T02:11:10;100223.28;;;10.99;100.00
32083;BME280;18597;48.328;7.932;2023-02-19T02:13:38;100232.28;;;10.98;100.00
32083;BME280;18597;48.328;7.932;2023-02-19T02:16:40;100229.22;;;10.91;100.00
32083;BME280;18597;48.328;7.932;2023-02-19T02:22:58;100235.16;;;10.95;100.00
32083;BME280;18597;48.328;7.932;2023-02-19T02:32:01;100241.94;;;10.88;100.00
32083;BME280;18597;48.328;7.932;2023-02-19T02:34:52;100241.09;;;10.87;100.00
32083;BME280;18597;48.328;7.932;2023-02-19T02:37:18;100242.19;;;10.84;100.00
32083;BME280;18597;48.328;7.932;2023-02-19T02:39:46;100236.25;;;10.92;100.00
32083;BME280;18597;48.328;7.932;2023-02-19T02:42:12;100218.16;;;10.84;100.00
32083;BME280;18597;48.328;7.932;2023-02-19T02:44:55;100215.84;;;10.91;100.00
32083;BME280;18597;48.328;7.932;2023-02-19T02:47:53;100204.66;;;10.75;100.00
32083;BME280;18597;48.328;7.932;2023-02-19T02:50:26;100182.78;;;10.81;100.00
32083;BME280;18597;48.328;7.932;2023-02-19T02:53:00;100166.47;;;10.62;100.00
32083;BME280;18597;48.328;7.932;2023-02-19T02:55:50;100168.75;;;10.44;100.00
32083;BME280;18597;48.328;7.932;2023-02-19T02:58:20;100166.06;;;10.44;100.00
32083;BME280;18597;48.328;7.932;2023-02-19T03:00:55;100165.81;;;10.47;100.00
32083;BME280;18597;48.328;7.932;2023-02-19T03:03:45;100172.59;;;10.40;100.00
32083;BME280;18597;48.328;7.932;2023-02-19T03:06:16;100181.22;;;10.19;100.00
32083;BME280;18597;48.328;7.932;2023-02-19T03:09:14;100176.25;;;10.15;100.00
32083;BME280;18597;48.328;7.932;2023-02-19T03:11:45;100184.44;;;10.24;100.00
32083;BME280;18597;48.328;7.932;2023-02-19T03:14:40;100191.81;;;10.21;100.00
32083;BME280;18597;48.328;7.932;2023-02-19T03:17:35;100181.44;;;10.29;100.00
32083;BME280;18597;48.328;7.932;2023-02-19T03:20:24;100181.22;;;10.19;100.00
32083;BME280;18597;48.328;7.932;2023-02-19T03:22:52;100185.41;;;10.23;100.00
32083;BME280;18597;48.328;7.932;2023-02-19T03:25:27;100175.47;;;10.25;100.00
32083;BME280;18597;48.328;7.932;2023-02-19T03:28:15;100173.97;;;10.21;100.00
32083;BME280;18597;48.328;7.932;2023-02-19T03:30:49;100178.97;;;10.26;100.00
32083;BME280;18597;48.328;7.932;2023-02-19T03:33:22;100179.31;;;10.21;100.00
32083;BME280;18597;48.328;7.932;2023-02-19T03:35:56;100173.34;;;10.18;100.00
32083;BME280;18597;48.328;7.932;2023-02-19T03:38:39;100180.28;;;10.20;100.00
32083;BME280;18597;48.328;7.932;2023-02-19T03:47:27;100184.53;;;10.47;100.00
32083;BME280;18597;48.328;7.932;2023-02-19T03:56:04;100193.25;;;10.49;100.00
32083;BME280;18597;48.328;7.932;2023-02-19T03:58:57;100189.53;;;10.51;100.00
32083;BME280;18597;48.328;7.932;2023-02-19T04:01:51;100187.19;;;10.47;100.00
32083;BME280;18597;48.328;7.932;2023-02-19T04:04:32;100191.09;;;10.43;100.00
32083;BME280;18597;48.328;7.932;2023-02-19T04:07:00;100188.28;;;10.44;100.00
32083;BME280;18597;48.328;7.932;2023-02-19T04:09:35;100181.34;;;10.42;100.00
32083;BME280;18597;48.328;7.932;2023-02-19T04:12:03;100193.25;;;10.49;100.00
32083;BME280;18597;48.328;7.932;2023-02-19T04:14:39;100190.50;;;10.50;100.00
32083;BME280;18597;48.328;7.932;2023-02-19T04:17:19;100188.41;;;10.43;100.00
32083;BME280;18597;48.328;7.932;2023-02-19T04:19:48;100194.25;;;10.48;100.00
32083;BME280;18597;48.328;7.932;2023-02-19T04:22:16;100203.34;;;10.45;100.00
32083;BME280;18597;48.328;7.932;2023-02-19T04:24:47;100202.25;;;10.48;100.00
32083;BME280;18597;48.328;7.932;2023-02-19T04:27:14;100202.25;;;10.48;100.00
32083;BME280;18597;48.328;7.932;2023-02-19T04:29:41;100205.50;;;10.40;100.00
32083;BME280;18597;48.328;7.932;2023-02-19T04:32:09;100220.47;;;10.43;100.00
32083;BME280;18597;48.328;7.932;2023-02-19T04:34:35;100219.84;;;10.39;100.00
32083;BME280;18597;48.328;7.932;2023-02-19T04:37:02;100229.28;;;10.32;100.00
32083;BME280;18597;48.328;7.932;2023-02-19T04:39:28;100234.22;;;10.25;100.00
32083;BME280;18597;48.328;7.932;2023-02-19T04:41:54;100238.38;;;10.30;100.00
32083;BME280;18597;48.328;7.932;2023-02-19T04:44:20;100236.88;;;10.25;100.00
32083;BME280;18597;48.328;7.932;2023-02-19T04:46:46;100245.94;;;10.36;100.00
32083;BME280;18597;48.328;7.932;2023-02-19T04:49:12;100247.00;;;10.33;100.00
32083;BME280;18597;48.328;7.932;2023-02-19T04:51:38;100237.00;;;10.24;100.00
32083;BME280;18597;48.328;7.932;2023-02-19T04:54:04;100254.19;;;10.20;100.00
32083;BME280;18597;48.328;7.932;2023-02-19T04:56:30;100269.53;;;10.05;100.00
32083;BME280;18597;48.328;7.932;2023-02-19T04:58:56;100276.66;;;10.05;100.00
32083;BME280;18597;48.328;7.932;2023-02-19T05:01:23;100273.63;;;9.98;100.00
32083;BME280;18597;48.328;7.932;2023-02-19T05:03:50;100279.72;;;9.74;100.00
32083;BME280;18597;48.328;7.932;2023-02-19T05:06:16;100292.03;;;9.52;100.00
32083;BME280;18597;48.328;7.932;2023-02-19T05:08:42;100301.66;;;9.41;100.00
32083;BME280;18597;48.328;7.932;2023-02-19T05:11:10;100297.59;;;9.36;100.00
32083;BME280;18597;48.328;7.932;2023-02-19T05:13:37;100299.75;;;9.31;100.00
32083;BME280;18597;48.328;7.932;2023-02-19T05:16:08;100309.16;;;9.24;100.00
32083;BME280;18597;48.328;7.932;2023-02-19T05:18:35;100315.84;;;9.16;100.00
32083;BME280;18597;48.328;7.932;2023-02-19T05:21:01;100316.16;;;9.12;100.00
32083;BME280;18597;48.328;7.932;2023-02-19T05:23:27;100313.16;;;9.04;100.00
32083;BME280;18597;48.328;7.932;2023-02-19T05:25:54;100318.28;;;8.94;100.00
32083;BME280;18597;48.328;7.932;2023-02-19T05:28:20;100325.53;;;8.92;100.00
32083;BME280;18597;48.328;7.932;2023-02-19T05:30:53;100329.13;;;8.91;100.00
32083;BME280;18597;48.328;7.932;2023-02-19T05:33:23;100336.19;;;8.92;100.00
32083;BME280;18597;48.328;7.932;2023-02-19T05:35:52;100337.91;;;9.06;100.00
32083;BME280;18597;48.328;7.932;2023-02-19T05:38:19;100340.47;;;9.07;100.00
32083;BME280;18597;48.328;7.932;2023-02-19T05:40:46;100343.63;;;8.87;100.00
32083;BME280;18597;48.328;7.932;2023-02-19T05:43:12;100345.44;;;8.86;100.00
32083;BME280;18597;48.328;7.932;2023-02-19T05:45:39;100333.28;;;8.82;100.00
32083;BME280;18597;48.328;7.932;2023-02-19T05:48:06;100342.22;;;8.81;100.00
32083;BME280;18597;48.328;7.932;2023-02-19T05:50:35;100337.13;;;8.78;100.00
32083;BME280;18597;48.328;7.932;2023-02-19T05:53:03;100345.75;;;8.82;100.00
32083;BME280;18597;48.328;7.932;2023-02-19T05:55:33;100349.66;;;8.76;100.00
32083;BME280;18597;48.328;7.932;2023-02-19T05:58:00;100354.34;;;8.73;100.00
32083;BME280;18597;48.328;7.932;2023-02-19T06:00:26;100348.16;;;8.72;100.00
32083;BME280;18597;48.328;7.932;2023-02-19T06:02:53;100351.47;;;8.76;100.00
32083;BME280;18597;48.328;7.932;2023-02-19T06:05:19;100344.84;;;8.69;100.00
32083;BME280;18597;48.328;7.932;2023-02-19T06:07:45;100347.72;;;8.66;100.00
32083;BME280;18597;48.328;7.932;2023-02-19T06:10:12;100359.38;;;8.77;100.00
32083;BME280;18597;48.328;7.932;2023-02-19T06:12:38;100357.97;;;8.72;100.00
32083;BME280;18597;48.328;7.932;2023-02-19T06:15:05;100364.44;;;8.68;100.00
32083;BME280;18597;48.328;7.932;2023-02-19T06:17:32;100364.72;;;8.77;100.00
32083;BME280;18597;48.328;7.932;2023-02-19T06:19:59;100367.13;;;8.68;100.00
32083;BME280;18597;48.328;7.932;2023-02-19T06:22:26;100368.47;;;8.60;100.00
32083;BME280;18597;48.328;7.932;2023-02-19T06:24:52;100371.34;;;8.57;100.00
32083;BME280;18597;48.328;7.932;2023-02-19T06:27:18;100371.81;;;8.64;100.00
32083;BME280;18597;48.328;7.932;2023-02-19T06:29:44;100381.03;;;8.58;100.00
32083;BME280;18597;48.328;7.932;2023-02-19T06:32:09;100379.13;;;8.60;100.00
32083;BME280;18597;48.328;7.932;2023-02-19T06:34:36;100387.03;;;8.62;100.00
32083;BME280;18597;48.328;7.932;2023-02-19T06:37:02;100395.31;;;8.57;100.00
32083;BME280;18597;48.328;7.932;2023-02-19T06:39:28;100387.97;;;8.61;100.00
32083;BME280;18597;48.328;7.932;2023-02-19T06:41:55;100388.84;;;8.61;100.00
32083;BME280;18597;48.328;7.932;2023-02-19T06:44:21;100388.63;;;8.65;100.00
32083;BME280;18597;48.328;7.932;2023-02-19T06:46:47;100403.19;;;8.59;100.00
32083;BME280;18597;48.328;7.932;2023-02-19T06:49:13;100404.63;;;8.65;100.00
32083;BME280;18597;48.328;7.932;2023-02-19T06:51:40;100411.38;;;8.70;100.00
32083;BME280;18597;48.328;7.932;2023-02-19T06:54:06;100397.53;;;8.78;100.00
32083;BME280;18597;48.328;7.932;2023-02-19T06:56:36;100399.66;;;8.73;100.00
32083;BME280;18597;48.328;7.932;2023-02-19T06:59:07;100411.81;;;8.77;100.00
32083;BME280;18597;48.328;7.932;2023-02-19T07:01:35;100412.81;;;8.88;100.00
32083;BME280;18597;48.328;7.932;2023-02-19T07:04:02;100412.06;;;8.86;100.00
32083;BME280;18597;48.328;7.932;2023-02-19T07:06:29;100416.03;;;8.94;100.00
32083;BME280;18597;48.328;7.932;2023-02-19T07:08:57;100430.47;;;8.77;100.00
32083;BME280;18597;48.328;7.932;2023-02-19T07:11:24;100420.75;;;8.76;100.00
32083;BME280;18597;48.328;7.932;2023-02-19T07:13:55;100428.84;;;8.74;100.00
32083;BME280;18597;48.328;7.932;2023-02-19T07:16:22;100427.88;;;8.75;100.00
32083;BME280;18597;48.328;7.932;2023-02-19T07:18:48;100426.88;;;8.90;100.00
32083;BME280;18597;48.328;7.932;2023-02-19T07:21:16;100422.56;;;9.02;100.00
32083;BME280;18597;48.328;7.932;2023-02-19T07:23:43;100421.81;;;9.13;100.00
32083;BME280;18597;48.328;7.932;2023-02-19T07:26:14;100412.78;;;9.15;100.00
32083;BME280;18597;48.328;7.932;2023-02-19T07:28:41;100423.00;;;9.09;100.00
32083;BME280;18597;48.328;7.932;2023-02-19T07:31:08;100433.56;;;9.10;100.00
32083;BME280;18597;48.328;7.932;2023-02-19T07:33:34;100447.44;;;9.15;100.00
32083;BME280;18597;48.328;7.932;2023-02-19T07:35:59;100436.16;;;9.25;100.00
32083;BME280;18597;48.328;7.932;2023-02-19T07:38:26;100436.50;;;9.33;100.00
32083;BME280;18597;48.328;7.932;2023-02-19T07:41:01;100439.28;;;9.44;100.00
32083;BME280;18597;48.328;7.932;2023-02-19T07:43:30;100437.16;;;9.49;100.00
32083;BME280;18597;48.328;7.932;2023-02-19T07:45:56;100443.16;;;9.53;100.00
32083;BME280;18597;48.328;7.932;2023-02-19T07:48:22;100441.22;;;9.55;100.00
32083;BME280;18597;48.328;7.932;2023-02-19T07:50:54;100437.38;;;9.59;100.00
32083;BME280;18597;48.328;7.932;2023-02-19T07:53:21;100436.84;;;9.66;100.00
32083;BME280;18597;48.328;7.932;2023-02-19T07:55:47;100451.28;;;9.77;100.00
32083;BME280;18597;48.328;7.932;2023-02-19T07:58:13;100451.91;;;9.80;100.00
32083;BME280;18597;48.328;7.932;2023-02-19T08:00:39;100452.66;;;9.69;100.00
32083;BME280;18597;48.328;7.932;2023-02-19T08:03:06;100460.25;;;9.76;100.00
32083;BME280;18597;48.328;7.932;2023-02-19T08:05:38;100462.41;;;9.83;100.00
32083;BME280;18597;48.328;7.932;2023-02-19T08:08:07;100448.94;;;9.85;100.00
32083;BME280;18597;48.328;7.932;2023-02-19T08:10:33;100450.09;;;9.93;100.00
32083;BME280;18597;48.328;7.932;2023-02-19T08:13:19;100456.41;;;9.92;100.00
32083;BME280;18597;48.328;7.932;2023-02-19T08:15:55;100442.41;;;10.01;100.00
32083;BME280;18597;48.328;7.932;2023-02-19T08:18:25;100450.63;;;10.11;100.00
32083;BME280;18597;48.328;7.932;2023-02-19T08:20:52;100461.72;;;10.18;100.00
32083;BME280;18597;48.328;7.932;2023-02-19T08:23:18;100462.31;;;10.23;100.00
32083;BME280;18597;48.328;7.932;2023-02-19T08:25:48;100476.19;;;10.28;100.00
32083;BME280;18597;48.328;7.932;2023-02-19T08:28:15;100479.47;;;10.32;100.00
32083;BME280;18597;48.328;7.932;2023-02-19T08:30:43;100486.53;;;10.33;100.00
32083;BME280;18597;48.328;7.932;2023-02-19T08:33:13;100485.44;;;10.35;100.00
32083;BME280;18597;48.328;7.932;2023-02-19T08:35:39;100489.50;;;10.41;100.00
32083;BME280;18597;48.328;7.932;2023-02-19T08:38:07;100488.00;;;10.49;100.00
32083;BME280;18597;48.328;7.932;2023-02-19T08:40:35;100487.56;;;10.55;100.00
32083;BME280;18597;48.328;7.932;2023-02-19T08:43:05;100486.25;;;10.74;100.00
32083;BME280;18597;48.328;7.932;2023-02-19T08:45:32;100481.28;;;10.80;100.00
32083;BME280;18597;48.328;7.932;2023-02-19T08:47:58;100492.19;;;10.90;100.00
32083;BME280;18597;48.328;7.932;2023-02-19T08:50:25;100490.41;;;11.02;100.00
32083;BME280;18597;48.328;7.932;2023-02-19T08:52:51;100504.91;;;11.10;100.00
32083;BME280;18597;48.328;7.932;2023-02-19T08:55:17;100506.75;;;11.10;100.00
32083;BME280;18597;48.328;7.932;2023-02-19T08:57:43;100501.94;;;11.02;100.00
32083;BME280;18597;48.328;7.932;2023-02-19T09:00:10;100495.94;;;11.11;100.00
32083;BME280;18597;48.328;7.932;2023-02-19T09:02:37;100495.03;;;11.24;100.00
32083;BME280;18597;48.328;7.932;2023-02-19T09:05:04;100493.72;;;11.29;100.00
32083;BME280;18597;48.328;7.932;2023-02-19T09:07:31;100493.97;;;11.26;100.00
32083;BME280;18597;48.328;7.932;2023-02-19T09:09:57;100499.34;;;11.37;100.00
32083;BME280;18597;48.328;7.932;2023-02-19T09:12:24;100499.47;;;11.36;100.00
32083;BME280;18597;48.328;7.932;2023-02-19T09:14:50;100500.31;;;11.36;100.00
32083;BME280;18597;48.328;7.932;2023-02-19T09:17:16;100498.31;;;11.51;100.00
32083;BME280;18597;48.328;7.932;2023-02-19T09:19:42;100491.53;;;11.70;100.00
32083;BME280;18597;48.328;7.932;2023-02-19T09:22:08;100488.47;;;11.87;100.00
32083;BME280;18597;48.328;7.932;2023-02-19T09:24:34;100495.19;;;12.15;100.00
32083;BME280;18597;48.328;7.932;2023-02-19T09:27:00;100495.06;;;12.16;100.00
32083;BME280;18597;48.328;7.932;2023-02-19T09:29:27;100501.28;;;12.06;100.00
32083;BME280;18597;48.328;7.932;2023-02-19T09:31:58;100503.31;;;11.91;100.00
32083;BME280;18597;48.328;7.932;2023-02-19T09:34:26;100499.66;;;11.81;100.00
32083;BME280;18597;48.328;7.932;2023-02-19T09:36:52;100495.16;;;11.81;100.00
32083;BME280;18597;48.328;7.932;2023-02-19T09:39:19;100495.28;;;11.91;100.00
32083;BME280;18597;48.328;7.932;2023-02-19T09:42:00;100493.88;;;12.09;100.00
32083;BME280;18597;48.328;7.932;2023-02-19T09:44:34;100504.09;;;12.15;100.00
32083;BME280;18597;48.328;7.932;2023-02-19T09:47:04;100494.72;;;12.43;100.00
32083;BME280;18597;48.328;7.932;2023-02-19T09:49:37;100503.97;;;12.73;100.00
32083;BME280;18597;48.328;7.932;2023-02-19T09:52:13;100508.47;;;12.84;96.34
32083;BME280;18597;48.328;7.932;2023-02-19T09:54:44;100505.19;;;12.24;93.19
32083;BME280;18597;48.328;7.932;2023-02-19T09:57:16;100508.75;;;12.25;100.00
32083;BME280;18597;48.328;7.932;2023-02-19T09:59:48;100516.53;;;12.39;100.00
32083;BME280;18597;48.328;7.932;2023-02-19T10:02:22;100514.22;;;12.68;100.00
32083;BME280;18597;48.328;7.932;2023-02-19T10:04:49;100516.00;;;12.90;98.60
32083;BME280;18597;48.328;7.932;2023-02-19T10:07:22;100522.44;;;12.98;94.05
32083;BME280;18597;48.328;7.932;2023-02-19T10:09:56;100519.53;;;12.90;93.53
32083;BME280;18597;48.328;7.932;2023-02-19T10:12:28;100529.31;;;12.80;94.69
32083;BME280;18597;48.328;7.932;2023-02-19T10:15:16;100529.91;;;12.84;92.48
32083;BME280;18597;48.328;7.932;2023-02-19T10:17:44;100538.84;;;12.73;93.79
32083;BME280;18597;48.328;7.932;2023-02-19T10:20:20;100551.75;;;12.68;92.32
32083;BME280;18597;48.328;7.932;2023-02-19T10:23:01;100542.00;;;12.67;91.11
32083;BME280;18597;48.328;7.932;2023-02-19T10:25:28;100542.09;;;12.76;94.70
32083;BME280;18597;48.328;7.932;2023-02-19T10:27:58;100539.78;;;12.83;94.53
32083;BME280;18597;48.328;7.932;2023-02-19T10:30:30;100539.56;;;12.86;91.97
32083;BME280;18597;48.328;7.932;2023-02-19T10:33:01;100543.28;;;13.06;90.92
32083;BME280;18597;48.328;7.932;2023-02-19T10:35:27;100540.22;;;13.22;91.22
32083;BME280;18597;48.328;7.932;2023-02-19T10:37:54;100555.84;;;13.17;88.38
32083;BME280;18597;48.328;7.932;2023-02-19T10:40:24;100554.25;;;13.14;88.89
32083;BME280;18597;48.328;7.932;2023-02-19T10:42:55;100554.88;;;13.06;89.58
32083;BME280;18597;48.328;7.932;2023-02-19T10:45:45;100554.28;;;13.03;89.63
32083;BME280;18597;48.328;7.932;2023-02-19T10:48:24;100552.34;;;12.94;90.11
32083;BME280;18597;48.328;7.932;2023-02-19T10:50:58;100552.09;;;13.08;89.12
32083;BME280;18597;48.328;7.932;2023-02-19T10:53:48;100557.44;;;13.30;86.02
32083;BME280;18597;48.328;7.932;2023-02-19T10:56:29;100549.34;;;13.42;87.02
32083;BME280;18597;48.328;7.932;2023-02-19T10:59:22;100555.34;;;13.34;86.95
32083;BME280;18597;48.328;7.932;2023-02-19T11:01:59;100557.03;;;13.35;88.46
32083;BME280;18597;48.328;7.932;2023-02-19T11:04:29;100552.66;;;13.34;88.40
32083;BME280;18597;48.328;7.932;2023-02-19T11:07:14;100558.09;;;13.44;89.13
32083;BME280;18597;48.328;7.932;2023-02-19T11:09:44;100560.22;;;13.40;86.38
32083;BME280;18597;48.328;7.932;2023-02-19T11:12:13;100559.50;;;13.16;80.91
32083;BME280;18597;48.328;7.932;2023-02-19T11:14:43;100563.19;;;13.03;83.12
32083;BME280;18597;48.328;7.932;2023-02-19T11:17:24;100565.75;;;12.94;83.77
32083;BME280;18597;48.328;7.932;2023-02-19T11:19:57;100566.44;;;13.07;80.82
32083;BME280;18597;48.328;7.932;2023-02-19T11:22:41;100560.84;;;12.99;82.49
32083;BME280;18597;48.328;7.932;2023-02-19T11:25:18;100562.47;;;12.79;82.79
32083;BME280;18597;48.328;7.932;2023-02-19T11:28:16;100558.09;;;12.67;82.63
32083;BME280;18597;48.328;7.932;2023-02-19T11:30:46;100551.97;;;12.54;82.70
32083;BME280;18597;48.328;7.932;2023-02-19T11:33:23;100549.31;;;12.42;84.69
32083;BME280;18597;48.328;7.932;2023-02-19T11:36:16;100548.97;;;12.47;85.50
32083;BME280;18597;48.328;7.932;2023-02-19T11:38:45;100543.94;;;12.54;84.28
32083;BME280;18597;48.328;7.932;2023-02-19T11:53:34;100554.66;;;12.76;79.27
32083;BME280;18597;48.328;7.932;2023-02-19T11:56:29;100551.63;;;12.81;78.55
32083;BME280;18597;48.328;7.932;2023-02-19T11:59:02;100553.28;;;13.15;76.25
32083;BME280;18597;48.328;7.932;2023-02-19T12:08:39;100555.50;;;13.10;73.62
32083;BME280;18597;48.328;7.932;2023-02-19T12:15:04;100563.88;;;13.39;73.09
32083;BME280;18597;48.328;7.932;2023-02-19T12:20:53;100573.06;;;13.57;68.45
32083;BME280;18597;48.328;7.932;2023-02-19T12:30:18;100534.16;;;13.84;64.53
32083;BME280;18597;48.328;7.932;2023-02-19T12:36:28;100530.44;;;14.27;64.69
32083;BME280;18597;48.328;7.932;2023-02-19T12:42:48;100535.78;;;14.17;62.27
32083;BME280;18597;48.328;7.932;2023-02-19T12:45:21;100536.34;;;14.21;63.12
32083;BME280;18597;48.328;7.932;2023-02-19T12:48:28;100537.09;;;14.23;62.63
32083;BME280;18597;48.328;7.932;2023-02-19T12:51:06;100542.84;;;14.39;62.11
32083;BME280;18597;48.328;7.932;2023-02-19T12:59:34;100541.03;;;14.19;61.87
32083;BME280;18597;48.328;7.932;2023-02-19T13:02:33;100537.28;;;14.31;60.71
32083;BME280;18597;48.328;7.932;2023-02-19T13:05:42;100521.16;;;14.31;61.05
32083;BME280;18597;48.328;7.932;2023-02-19T13:08:39;100518.00;;;14.26;60.50
32083;BME280;18597;48.328;7.932;2023-02-19T13:11:19;100529.34;;;14.29;61.65
32083;BME280;18597;48.328;7.932;2023-02-19T13:17:30;100521.97;;;14.22;61.37
32083;BME280;18597;48.328;7.932;2023-02-19T13:20:15;100532.63;;;14.12;61.76
32083;BME280;18597;48.328;7.932;2023-02-19T13:22:59;100525.16;;;13.95;62.52
32083;BME280;18597;48.328;7.932;2023-02-19T13:29:40;100533.44;;;13.50;64.88
32083;BME280;18597;48.328;7.932;2023-02-19T13:37:45;100526.09;;;13.09;65.70
32083;BME280;18597;48.328;7.932;2023-02-19T13:40:33;100517.25;;;12.86;66.92
32083;BME280;18597;48.328;7.932;2023-02-19T13:43:03;100534.19;;;12.75;67.65
32083;BME280;18597;48.328;7.932;2023-02-19T13:45:37;100528.38;;;12.70;67.40
32083;BME280;18597;48.328;7.932;2023-02-19T13:48:30;100531.66;;;12.51;68.90
32083;BME280;18597;48.328;7.932;2023-02-19T13:59:32;100517.50;;;12.38;70.57
32083;BME280;18597;48.328;7.932;2023-02-19T14:04:54;100528.09;;;12.28;71.29
32083;BME280;18597;48.328;7.932;2023-02-19T14:07:50;100532.72;;;12.26;72.74
32083;BME280;18597;48.328;7.932;2023-02-19T14:10:54;100542.69;;;12.24;72.53
32083;BME280;18597;48.328;7.932;2023-02-19T14:19:42;100518.59;;;12.35;72.48
32083;BME280;18597;48.328;7.932;2023-02-19T14:30:55;100516.38;;;12.96;67.98
32083;BME280;18597;48.328;7.932;2023-02-19T14:33:27;100515.88;;;12.91;67.04
32083;BME280;18597;48.328;7.932;2023-02-19T14:36:05;100517.00;;;12.89;67.01
32083;BME280;18597;48.328;7.932;2023-02-19T14:38:44;100511.75;;;12.87;66.89
32083;BME280;18597;48.328;7.932;2023-02-19T14:41:13;100525.66;;;12.81;67.29
32083;BME280;18597;48.328;7.932;2023-02-19T14:43:40;100530.31;;;12.79;68.35
32083;BME280;18597;48.328;7.932;2023-02-19T14:46:27;100535.31;;;12.72;67.79
32083;BME280;18597;48.328;7.932;2023-02-19T14:48:54;100541.78;;;12.70;68.17
32083;BME280;18597;48.328;7.932;2023-02-19T14:51:31;100534.81;;;12.67;68.95
32083;BME280;18597;48.328;7.932;2023-02-19T14:54:01;100528.63;;;12.56;68.27
32083;BME280;18597;48.328;7.932;2023-02-19T14:56:33;100533.13;;;12.55;69.40
32083;BME280;18597;48.328;7.932;2023-02-19T15:01:55;100527.63;;;12.45;70.28